Time;durP1;ratioP1;P1;durP2;ratioP2;P2;SDS_P1;SDS_P2;PMS_P1;PMS_P2;Temp;Humidity;BMP_temperature;BMP_pressure;BME280_temperature;BME280_humidity;BME280_pressure;Samples;Min_cycle;Max_cycle;Signal;HPM_P1;HPM_P2
2021/10/02 00:01:41;;;;;;;4.00;2.00;;;9.50;96.30;;;;;;4916166;29;20760;-76
2021/10/02 04:02:27;;;;;;;11.73;3.17;;;8.30;96.30;;;;;;5029128;23;20496;-76
2021/10/02 04:04:53;;;;;;;3.00;2.70;;;8.30;96.30;;;;;;4961212;28;20465;-75
2021/10/02 04:07:18;;;;;;;5.80;3.27;;;8.40;96.30;;;;;;4956741;28;20560;-76
2021/10/02 04:09:44;;;;;;;3.00;2.73;;;8.40;96.30;;;;;;4956731;28;20230;-76
2021/10/02 04:12:09;;;;;;;3.40;3.10;;;8.40;96.30;;;;;;4956087;28;20202;-76
2021/10/02 04:14:35;;;;;;;4.10;2.40;;;8.40;96.30;;;;;;4957543;28;20693;-76
2021/10/02 04:17:00;;;;;;;5.63;2.73;;;8.40;96.30;;;;;;4958368;28;20183;-76
2021/10/02 04:19:27;;;;;;;4.80;2.87;;;8.40;96.30;;;;;;4956791;29;20179;-73
2021/10/02 04:21:53;;;;;;;3.43;2.63;;;8.40;96.30;;;;;;4955889;28;20198;-75
2021/10/02 04:24:19;;;;;;;4.03;3.33;;;8.30;96.30;;;;;;4956545;28;20537;-75
2021/10/02 04:26:44;;;;;;;3.90;2.57;;;8.50;96.30;;;;;;4963218;28;20250;-75
2021/10/02 04:29:10;;;;;;;4.77;3.10;;;8.60;96.30;;;;;;4975627;28;20500;-75
2021/10/02 04:31:36;;;;;;;4.63;2.67;;;8.70;96.30;;;;;;4974791;28;20190;-75
2021/10/02 04:34:01;;;;;;;5.83;3.20;;;8.70;96.30;;;;;;4975730;28;20182;-75
2021/10/02 04:36:27;;;;;;;5.73;3.20;;;8.70;96.30;;;;;;4975630;28;20178;-75
2021/10/02 04:38:54;;;;;;;4.70;3.20;;;8.80;96.30;;;;;;4975325;28;20805;-76
2021/10/02 04:41:20;;;;;;;4.20;3.00;;;8.90;96.30;;;;;;4974396;28;20190;-75
2021/10/02 04:43:46;;;;;;;7.33;3.30;;;9.10;96.30;;;;;;4975366;28;20476;-75
2021/10/02 04:46:14;;;;;;;5.03;3.30;;;9.40;96.30;;;;;;4975491;28;20406;-75
2021/10/02 04:48:40;;;;;;;12.53;3.67;;;9.50;96.30;;;;;;4975339;28;20181;-75
2021/10/02 04:51:06;;;;;;;6.47;4.03;;;9.50;96.30;;;;;;4974715;28;20516;-75
2021/10/02 04:53:32;;;;;;;4.03;3.60;;;9.70;96.30;;;;;;4975149;28;20413;-76
2021/10/02 04:56:01;;;;;;;4.27;3.43;;;9.80;96.30;;;;;;4971503;28;20451;-75
2021/10/02 04:58:27;;;;;;;4.30;3.80;;;10.00;96.30;;;;;;4974714;28;20174;-75
2021/10/02 05:00:53;;;;;;;4.20;2.90;;;10.10;96.30;;;;;;4973169;28;20473;-74
2021/10/02 05:03:19;;;;;;;7.20;4.50;;;10.20;96.30;;;;;;4974468;28;20458;-76
2021/10/02 05:05:44;;;;;;;5.60;3.80;;;10.30;96.30;;;;;;4975190;28;20177;-74
2021/10/02 05:08:10;;;;;;;4.10;3.70;;;10.30;96.30;;;;;;4974883;28;20217;-77
2021/10/02 05:10:36;;;;;;;5.43;3.20;;;10.10;96.30;;;;;;4974990;28;20297;-74
2021/10/02 05:13:01;;;;;;;6.47;3.70;;;10.20;96.30;;;;;;4974273;28;20185;-74
2021/10/02 05:15:27;;;;;;;5.83;3.17;;;10.10;96.30;;;;;;4975043;28;20170;-73
2021/10/02 05:17:52;;;;;;;4.97;3.80;;;10.00;96.30;;;;;;4973694;28;20189;-75
2021/10/02 05:20:18;;;;;;;15.10;3.83;;;9.80;96.30;;;;;;4973422;28;20186;-73
2021/10/02 05:22:43;;;;;;;4.67;3.20;;;9.90;96.30;;;;;;4973050;28;20193;-74
2021/10/02 05:25:09;;;;;;;6.67;3.47;;;10.20;96.30;;;;;;4974973;28;20178;-73
2021/10/02 05:27:34;;;;;;;6.77;3.90;;;10.40;96.30;;;;;;4974704;28;20641;-77
2021/10/02 05:30:00;;;;;;;16.50;2.70;;;10.80;96.30;;;;;;4974509;28;20588;-80
2021/10/02 05:32:26;;;;;;;3.40;2.83;;;11.00;96.30;;;;;;4974082;28;20186;-74
2021/10/02 05:34:52;;;;;;;6.20;3.10;;;11.00;96.30;;;;;;4974582;28;20201;-74
2021/10/02 05:37:17;;;;;;;4.10;3.70;;;10.90;96.30;;;;;;4974562;28;20182;-74
2021/10/02 05:39:43;;;;;;;7.57;3.53;;;10.70;96.30;;;;;;4974353;28;20176;-74
2021/10/02 05:42:08;;;;;;;3.90;3.50;;;10.60;96.30;;;;;;4974169;28;20194;-74
2021/10/02 05:44:34;;;;;;;4.50;3.23;;;10.40;96.30;;;;;;4974605;28;20665;-74
2021/10/02 05:47:00;;;;;;;5.67;3.53;;;10.20;96.30;;;;;;4974465;28;20179;-75
2021/10/02 05:49:26;;;;;;;10.10;4.40;;;10.10;96.30;;;;;;4974100;28;20177;-73
2021/10/02 05:51:51;;;;;;;3.80;3.27;;;9.90;96.30;;;;;;4973817;28;20438;-77
2021/10/02 05:54:17;;;;;;;8.63;3.27;;;9.80;96.30;;;;;;4974492;28;20670;-74
2021/10/02 05:56:42;;;;;;;3.97;3.57;;;9.90;96.30;;;;;;4974243;28;20278;-74
2021/10/02 05:59:08;;;;;;;5.83;3.30;;;10.10;96.30;;;;;;4973044;28;20182;-74
2021/10/02 06:01:34;;;;;;;5.97;3.50;;;10.20;96.30;;;;;;4973375;28;20213;-73
2021/10/02 06:03:59;;;;;;;5.07;3.37;;;10.40;96.30;;;;;;4972568;28;20194;-77
2021/10/02 06:06:25;;;;;;;7.33;3.53;;;10.70;96.30;;;;;;4955400;28;20407;-77
2021/10/02 06:08:50;;;;;;;3.97;3.27;;;10.90;96.30;;;;;;4953949;29;20194;-77
2021/10/02 06:11:16;;;;;;;6.20;3.90;;;11.10;96.30;;;;;;4952345;28;20195;-75
2021/10/02 06:13:42;;;;;;;5.87;3.17;;;11.20;96.30;;;;;;4953769;29;20167;-76
2021/10/02 06:16:08;;;;;;;4.40;3.20;;;11.50;96.30;;;;;;4953861;28;20183;-76
2021/10/02 06:18:33;;;;;;;4.27;3.07;;;12.40;96.30;;;;;;4966020;28;20224;-76
2021/10/02 06:20:59;;;;;;;4.73;3.20;;;12.90;96.30;;;;;;4971115;28;20209;-76
2021/10/02 06:23:27;;;;;;;5.00;3.70;;;13.30;96.30;;;;;;4969237;28;20208;-75
2021/10/02 06:25:54;;;;;;;5.10;2.97;;;13.30;96.30;;;;;;4973463;28;20631;-74
2021/10/02 06:28:20;;;;;;;4.70;3.30;;;13.10;96.30;;;;;;4954204;28;20414;-74
2021/10/02 06:30:46;;;;;;;6.03;3.10;;;13.00;96.30;;;;;;4954147;28;20478;-74
2021/10/02 06:33:11;;;;;;;5.20;3.27;;;12.80;96.30;;;;;;4953642;28;20415;-74
2021/10/02 06:35:37;;;;;;;6.13;3.60;;;12.50;96.30;;;;;;4954108;28;20414;-74
2021/10/02 06:38:02;;;;;;;5.33;3.43;;;12.40;96.30;;;;;;4953858;28;20647;-74
2021/10/02 06:40:29;;;;;;;4.33;3.70;;;12.20;96.30;;;;;;4953997;28;20179;-74
2021/10/02 06:42:54;;;;;;;6.43;3.70;;;12.20;96.30;;;;;;4953298;28;20178;-74
2021/10/02 06:45:20;;;;;;;4.80;3.60;;;12.40;96.30;;;;;;4954217;28;20418;-74
2021/10/02 06:47:46;;;;;;;7.10;3.80;;;12.90;96.30;;;;;;4954190;28;20538;-74
2021/10/02 06:50:11;;;;;;;5.40;3.63;;;13.50;96.30;;;;;;4954147;28;20303;-74
2021/10/02 06:52:37;;;;;;;6.30;3.97;;;13.80;96.30;;;;;;4953542;28;20175;-75
2021/10/02 06:55:06;;;;;;;4.70;3.20;;;14.40;96.30;;;;;;4954139;28;20222;-75
2021/10/02 06:57:32;;;;;;;5.93;3.37;;;15.00;96.30;;;;;;4952845;29;20198;-75
2021/10/02 06:59:57;;;;;;;3.83;3.30;;;16.00;96.30;;;;;;4953899;28;20501;-76
2021/10/02 07:02:23;;;;;;;3.87;3.20;;;16.90;96.30;;;;;;4953310;28;20218;-76
2021/10/02 07:04:49;;;;;;;5.10;3.30;;;17.70;96.30;;;;;;4953941;28;20226;-77
2021/10/02 07:07:16;;;;;;;11.57;3.80;;;17.80;96.30;;;;;;4953885;28;20424;-76
2021/10/02 07:09:41;;;;;;;6.40;3.73;;;18.30;96.30;;;;;;4953911;28;20262;-76
2021/10/02 07:12:07;;;;;;;4.97;2.90;;;16.90;96.30;;;;;;4953149;28;20877;-76
2021/10/02 07:14:33;;;;;;;4.07;2.77;;;16.80;96.30;;;;;;4953984;28;20183;-77
2021/10/02 07:16:58;;;;;;;5.93;3.40;;;16.20;96.30;;;;;;4954028;28;20187;-75
2021/10/02 07:19:24;;;;;;;5.20;3.70;;;15.90;96.30;;;;;;4956682;28;20195;-76
2021/10/02 07:21:49;;;;;;;3.10;2.80;;;15.90;96.30;;;;;;4957291;28;20610;-75
2021/10/02 07:24:15;;;;;;;7.17;3.63;;;15.60;96.30;;;;;;4957674;28;20214;-76
2021/10/02 07:26:41;;;;;;;10.07;3.50;;;15.70;96.30;;;;;;4972651;28;20265;-75
2021/10/02 07:29:07;;;;;;;4.87;3.27;;;15.50;96.30;;;;;;4976991;28;20472;-75
2021/10/02 07:31:33;;;;;;;8.07;3.20;;;15.40;96.30;;;;;;4976492;28;20437;-75
2021/10/02 07:33:58;;;;;;;7.30;3.20;;;15.40;96.30;;;;;;4976915;28;20214;-75
2021/10/02 07:36:24;;;;;;;4.80;3.40;;;15.20;96.30;;;;;;4976949;28;20265;-75
2021/10/02 07:38:50;;;;;;;8.10;4.53;;;15.30;96.30;;;;;;4975734;28;20216;-74
2021/10/02 07:41:17;;;;;;;8.23;5.37;;;14.90;96.30;;;;;;4976229;28;20685;-75
2021/10/02 07:43:46;;;;;;;3.67;2.60;;;14.70;96.30;;;;;;4976613;28;20209;-76
2021/10/02 07:46:15;;;;;;;3.90;3.50;;;14.70;96.30;;;;;;4975666;28;20425;-75
2021/10/02 07:48:41;;;;;;;3.90;3.27;;;14.60;96.30;;;;;;4975440;28;20426;-76
2021/10/02 07:51:09;;;;;;;6.80;3.37;;;14.60;96.30;;;;;;4976009;28;20874;-76
2021/10/02 07:53:34;;;;;;;4.23;3.07;;;14.60;96.30;;;;;;4976679;28;20429;-76
2021/10/02 07:56:02;;;;;;;4.93;3.00;;;14.60;96.30;;;;;;4974344;28;20429;-76
2021/10/02 07:58:27;;;;;;;5.10;3.30;;;14.40;96.30;;;;;;4975199;28;20194;-77
2021/10/02 08:00:54;;;;;;;4.50;3.10;;;14.40;96.30;;;;;;4975657;28;20465;-76
2021/10/02 08:03:20;;;;;;;7.40;3.97;;;14.30;96.30;;;;;;4974782;28;20202;-75
2021/10/02 08:05:46;;;;;;;10.13;4.17;;;14.40;96.30;;;;;;4975843;28;20416;-75
2021/10/02 08:08:16;;;;;;;7.50;4.60;;;14.40;96.30;;;;;;4974253;28;20409;-76
2021/10/02 08:10:42;;;;;;;6.30;4.80;;;14.40;96.30;;;;;;4975632;28;20430;-76
2021/10/02 08:13:07;;;;;;;17.87;6.27;;;14.70;96.30;;;;;;4975566;28;20992;-75
2021/10/02 08:15:33;;;;;;;10.27;7.10;;;14.80;96.30;;;;;;4974929;28;20476;-75
2021/10/02 08:18:01;;;;;;;9.67;4.63;;;15.00;96.30;;;;;;4975505;28;20309;-75
2021/10/02 08:20:28;;;;;;;10.90;3.97;;;15.10;96.30;;;;;;4975948;28;20185;-75
2021/10/02 08:22:57;;;;;;;4.63;3.20;;;15.30;96.30;;;;;;4975729;28;20837;-75
2021/10/02 08:25:24;;;;;;;4.50;3.27;;;15.50;96.30;;;;;;4975983;28;20410;-75
2021/10/02 08:27:50;;;;;;;6.63;4.70;;;15.60;96.30;;;;;;4976107;28;20500;-75
2021/10/02 08:30:17;;;;;;;8.53;5.80;;;15.50;96.30;;;;;;4975717;28;20457;-76
2021/10/02 08:32:43;;;;;;;7.50;5.53;;;15.50;96.30;;;;;;4975657;28;20186;-75
2021/10/02 08:35:09;;;;;;;5.77;3.67;;;15.50;96.30;;;;;;4975866;28;20460;-75
2021/10/02 08:37:36;;;;;;;5.13;3.30;;;15.60;96.30;;;;;;4974524;28;20229;-75
2021/10/02 08:40:04;;;;;;;5.43;3.23;;;15.90;96.30;;;;;;4975812;28;20410;-75
2021/10/02 08:42:30;;;;;;;8.03;3.47;;;16.60;96.30;;;;;;4974977;28;20442;-76
2021/10/02 08:44:57;;;;;;;3.07;2.77;;;17.70;96.30;;;;;;4975687;28;20824;-76
2021/10/02 08:47:23;;;;;;;4.50;3.20;;;18.00;96.30;;;;;;4975766;28;20417;-76
2021/10/02 08:49:50;;;;;;;7.20;3.40;;;17.80;96.30;;;;;;4974424;28;20410;-76
2021/10/02 08:52:20;;;;;;;4.70;3.10;;;17.80;96.30;;;;;;4974700;28;20194;-76
2021/10/02 08:54:49;;;;;;;12.30;4.87;;;18.10;96.30;;;;;;4975498;28;20439;-76
2021/10/02 08:57:22;;;;;;;13.83;6.30;;;19.10;96.30;;;;;;4975460;28;20504;-76
2021/10/02 08:59:50;;;;;;;8.30;4.23;;;19.30;96.30;;;;;;4975088;28;20831;-76
2021/10/02 09:02:16;;;;;;;5.00;2.90;;;20.00;96.30;;;;;;4974659;28;20875;-76
2021/10/02 09:04:44;;;;;;;6.67;3.33;;;21.40;90.60;;;;;;4975239;28;20544;-76
2021/10/02 09:07:09;;;;;;;5.07;3.67;;;22.80;85.80;;;;;;4975239;28;20410;-76
2021/10/02 09:09:35;;;;;;;4.50;2.73;;;23.00;83.80;;;;;;4974195;28;20420;-76
2021/10/02 09:12:05;;;;;;;2.63;2.33;;;23.70;81.40;;;;;;4974140;28;20197;-76
2021/10/02 09:14:30;;;;;;;3.10;1.80;;;23.80;79.80;;;;;;4975025;28;20522;-76
2021/10/02 09:16:57;;;;;;;3.27;2.00;;;23.80;72.00;;;;;;4973841;28;20441;-76
2021/10/02 09:19:23;;;;;;;8.43;3.87;;;23.40;77.90;;;;;;4974993;28;20736;-76
2021/10/02 09:22:16;;;;;;;2.47;1.80;;;23.70;78.90;;;;;;4974333;28;20956;-76
2021/10/02 09:24:44;;;;;;;3.57;1.00;;;23.50;69.60;;;;;;4972698;28;20537;-76
2021/10/02 09:27:18;;;;;;;2.60;1.33;;;22.80;71.90;;;;;;4964773;28;20777;-76
2021/10/02 09:29:50;;;;;;;3.10;1.40;;;23.10;73.40;;;;;;4955778;28;20906;-76
2021/10/02 09:32:18;;;;;;;1.67;1.50;;;23.00;72.20;;;;;;4955245;28;20977;-76
2021/10/02 09:34:47;;;;;;;1.97;1.50;;;23.00;74.20;;;;;;4956275;28;20828;-76
2021/10/02 09:37:21;;;;;;;2.97;1.60;;;23.90;72.40;;;;;;4954884;28;20472;-76
2021/10/02 09:39:48;;;;;;;2.30;1.67;;;23.80;69.90;;;;;;4955971;28;20461;-76
2021/10/02 09:42:31;;;;;;;1.83;1.50;;;23.30;70.20;;;;;;4953436;28;20442;-76
2021/10/02 09:44:59;;;;;;;1.53;1.43;;;23.20;71.80;;;;;;4955697;28;20478;-76
2021/10/02 09:47:25;;;;;;;1.73;1.60;;;23.00;71.10;;;;;;4955623;28;20937;-76
2021/10/02 09:49:51;;;;;;;2.30;1.30;;;23.30;73.50;;;;;;4956173;28;20410;-76
2021/10/02 09:52:31;;;;;;;4.23;1.50;;;23.20;71.70;;;;;;4954490;28;20210;-76
2021/10/02 09:54:58;;;;;;;2.40;1.30;;;23.20;71.80;;;;;;4954887;28;20186;-76
2021/10/02 09:57:24;;;;;;;2.70;1.27;;;23.10;72.80;;;;;;4955310;28;20554;-75
2021/10/02 09:59:50;;;;;;;2.10;1.30;;;23.20;72.80;;;;;;4953961;28;20510;-76
2021/10/02 10:02:18;;;;;;;2.60;1.50;;;22.50;73.00;;;;;;4954202;28;20206;-75
2021/10/02 10:04:55;;;;;;;1.50;1.33;;;22.00;75.80;;;;;;4954984;28;20547;-76
2021/10/02 10:07:22;;;;;;;2.60;1.57;;;21.90;79.10;;;;;;4953337;29;20429;-76
2021/10/02 10:10:02;;;;;;;2.70;1.97;;;22.00;78.80;;;;;;4955126;28;20407;-77
2021/10/02 10:12:29;;;;;;;2.93;1.87;;;22.00;74.70;;;;;;4952938;28;20469;-76
2021/10/02 10:14:55;;;;;;;2.47;1.40;;;22.20;76.10;;;;;;4955430;28;20941;-75
2021/10/02 10:17:20;;;;;;;2.20;1.93;;;22.60;75.80;;;;;;4956202;28;20414;-75
2021/10/02 10:19:46;;;;;;;2.23;1.30;;;22.70;79.50;;;;;;4954623;28;20178;-75
2021/10/02 10:22:16;;;;;;;1.93;1.50;;;22.80;76.80;;;;;;4953925;28;20246;-75
2021/10/02 10:25:11;;;;;;;2.23;1.63;;;23.00;76.70;;;;;;4954553;28;20458;-75
2021/10/02 10:27:37;;;;;;;2.63;1.20;;;23.50;71.70;;;;;;4953000;29;20454;-75
2021/10/02 10:30:15;;;;;;;3.53;1.60;;;23.60;75.30;;;;;;4954582;28;20490;-75
2021/10/02 10:33:04;;;;;;;2.03;1.40;;;23.40;72.40;;;;;;4953905;28;20175;-74
2021/10/02 10:35:34;;;;;;;1.40;1.30;;;22.00;79.60;;;;;;4954162;28;20414;-75
2021/10/02 10:37:59;;;;;;;1.60;1.20;;;21.70;79.20;;;;;;4954342;28;20927;-76
2021/10/02 10:40:25;;;;;;;2.17;1.43;;;21.70;79.20;;;;;;4954202;28;20441;-76
2021/10/02 10:42:52;;;;;;;2.40;1.37;;;21.90;77.00;;;;;;4953920;28;20226;-76
2021/10/02 10:45:18;;;;;;;2.07;1.30;;;21.70;73.70;;;;;;4954308;28;20718;-75
2021/10/02 10:47:44;;;;;;;1.53;1.43;;;21.70;73.20;;;;;;4954084;28;20526;-76
2021/10/02 10:50:10;;;;;;;1.67;1.30;;;22.20;79.40;;;;;;4954176;28;20429;-76
2021/10/02 10:52:41;;;;;;;1.73;1.50;;;22.60;76.40;;;;;;4952719;28;20783;-75
2021/10/02 10:55:20;;;;;;;1.50;1.13;;;23.00;71.10;;;;;;4954364;28;20181;-75
2021/10/02 10:57:49;;;;;;;2.90;1.60;;;22.80;74.30;;;;;;4954197;28;20437;-76
2021/10/02 11:00:18;;;;;;;1.53;1.40;;;23.00;81.30;;;;;;4953958;28;20433;-76
2021/10/02 11:02:47;;;;;;;1.90;1.47;;;23.20;78.30;;;;;;4953621;28;20415;-76
2021/10/02 11:05:34;;;;;;;1.67;1.20;;;23.50;79.90;;;;;;4954306;28;20494;-76
2021/10/02 11:08:01;;;;;;;3.57;1.63;;;23.80;78.80;;;;;;4954190;28;20403;-76
2021/10/02 11:10:41;;;;;;;3.33;1.23;;;24.30;75.90;;;;;;4953972;28;20473;-75
2021/10/02 11:13:12;;;;;;;2.03;1.43;;;24.50;72.80;;;;;;4953450;28;20449;-75
2021/10/02 11:15:38;;;;;;;3.33;1.30;;;23.50;72.70;;;;;;4954112;28;20457;-76
2021/10/02 11:18:03;;;;;;;1.73;1.20;;;23.50;74.00;;;;;;4953617;28;20406;-74
2021/10/02 11:20:31;;;;;;;1.30;1.20;;;23.70;72.70;;;;;;4953804;28;20207;-75
2021/10/02 11:23:34;;;;;;;1.93;1.30;;;23.30;70.60;;;;;;4953431;28;20169;-75
2021/10/02 11:26:23;;;;;;;1.80;1.23;;;23.00;69.40;;;;;;4954542;28;20406;-75
2021/10/02 11:29:10;;;;;;;3.73;1.57;;;23.10;70.40;;;;;;4973209;28;20406;-76
2021/10/02 11:31:36;;;;;;;2.60;1.40;;;23.00;70.30;;;;;;4972503;28;20488;-76
2021/10/02 11:34:02;;;;;;;1.40;1.00;;;22.30;68.60;;;;;;4973153;28;20449;-76
2021/10/02 11:36:31;;;;;;;2.33;1.13;;;22.50;70.40;;;;;;4973202;28;20179;-76
2021/10/02 11:39:11;;;;;;;3.27;1.20;;;22.50;69.70;;;;;;4972911;28;20406;-76
2021/10/02 11:41:58;;;;;;;1.47;1.37;;;22.10;69.40;;;;;;4972513;28;20516;-76
2021/10/02 11:44:33;;;;;;;1.47;1.10;;;22.50;70.80;;;;;;4972464;28;20476;-76
2021/10/02 11:47:26;;;;;;;1.43;1.27;;;22.60;68.30;;;;;;4973253;28;20441;-77
2021/10/02 11:50:07;;;;;;;1.77;1.10;;;22.30;69.80;;;;;;4973002;28;20401;-76
2021/10/02 11:52:37;;;;;;;2.13;1.60;;;22.30;69.50;;;;;;4972322;28;20417;-76
2021/10/02 11:55:34;;;;;;;2.30;1.70;;;22.40;70.50;;;;;;4972819;28;20477;-76
2021/10/02 11:58:11;;;;;;;3.63;1.17;;;22.50;69.90;;;;;;4972593;28;20424;-76
2021/10/02 12:00:39;;;;;;;2.30;1.40;;;22.40;68.60;;;;;;4972784;28;20461;-77
2021/10/02 12:03:06;;;;;;;2.20;1.63;;;22.20;70.60;;;;;;4970755;28;20426;-76
2021/10/02 12:05:32;;;;;;;3.07;1.80;;;22.40;70.40;;;;;;4976011;28;20614;-76
2021/10/02 12:07:58;;;;;;;1.80;1.33;;;22.50;71.00;;;;;;4976494;28;20414;-76
2021/10/02 12:10:24;;;;;;;1.30;1.13;;;22.90;70.90;;;;;;4976398;28;20751;-76
2021/10/02 12:12:52;;;;;;;1.90;1.30;;;23.00;72.30;;;;;;4975753;28;20198;-75
2021/10/02 12:15:34;;;;;;;2.87;1.50;;;23.10;70.80;;;;;;4975162;28;20423;-76
2021/10/02 12:18:00;;;;;;;2.23;1.53;;;23.10;70.80;;;;;;4976214;28;20833;-75
2021/10/02 12:20:36;;;;;;;2.47;1.43;;;23.20;73.60;;;;;;4976314;28;20417;-76
2021/10/02 12:23:07;;;;;;;2.90;2.13;;;22.70;70.20;;;;;;4975694;28;20593;-76
2021/10/02 12:25:32;;;;;;;2.07;1.27;;;22.40;70.80;;;;;;4976058;28;20422;-76
2021/10/02 12:27:57;;;;;;;1.73;1.47;;;22.30;71.90;;;;;;4959385;28;20415;-76
2021/10/02 12:30:23;;;;;;;1.47;1.37;;;22.50;72.20;;;;;;4956737;28;20222;-76
2021/10/02 12:32:57;;;;;;;3.97;1.90;;;22.50;71.80;;;;;;4956191;28;20171;-76
2021/10/02 12:35:22;;;;;;;2.00;1.40;;;22.50;71.20;;;;;;4956333;28;20183;-77
2021/10/02 12:37:48;;;;;;;1.90;1.70;;;22.00;71.70;;;;;;4956616;28;20418;-76
2021/10/02 12:40:15;;;;;;;1.60;1.50;;;22.00;73.70;;;;;;4956760;28;20639;-76
2021/10/02 12:42:51;;;;;;;1.50;1.40;;;22.40;71.60;;;;;;4956100;28;20341;-77
2021/10/02 12:45:18;;;;;;;2.43;1.70;;;22.30;72.20;;;;;;4958185;28;20490;-75
2021/10/02 12:47:54;;;;;;;2.37;1.97;;;22.00;72.10;;;;;;4957473;28;20887;-76
2021/10/02 12:50:29;;;;;;;1.87;1.50;;;21.80;72.80;;;;;;4956180;28;20406;-75
2021/10/02 12:52:57;;;;;;;2.07;1.50;;;21.90;73.80;;;;;;4955697;28;20805;-76
2021/10/02 12:55:23;;;;;;;3.60;1.77;;;21.70;71.80;;;;;;4956258;28;20399;-76
2021/10/02 12:57:49;;;;;;;2.80;1.70;;;21.90;72.70;;;;;;4957097;28;20410;-76
2021/10/02 13:00:25;;;;;;;2.03;1.80;;;21.80;71.70;;;;;;4957591;28;20406;-77
2021/10/02 13:02:55;;;;;;;6.03;2.33;;;21.80;72.60;;;;;;4955697;28;20506;-76
2021/10/02 13:05:23;;;;;;;2.50;1.90;;;21.90;74.80;;;;;;4956069;28;20423;-76
2021/10/02 13:07:58;;;;;;;2.63;1.80;;;22.00;75.70;;;;;;4956038;28;20425;-76
2021/10/02 13:10:35;;;;;;;2.93;1.73;;;21.90;76.30;;;;;;4956032;28;20481;-76
2021/10/02 13:13:03;;;;;;;3.30;2.13;;;22.10;76.30;;;;;;4955360;28;20433;-76
2021/10/02 13:15:39;;;;;;;3.60;1.80;;;21.60;79.00;;;;;;4954062;28;20823;-76
2021/10/02 13:18:18;;;;;;;4.80;2.10;;;21.50;79.10;;;;;;4955725;28;20405;-76
2021/10/02 13:20:46;;;;;;;2.20;2.00;;;21.30;80.30;;;;;;4955813;28;20913;-76
2021/10/02 13:23:21;;;;;;;3.10;2.27;;;21.50;80.10;;;;;;4955373;28;20458;-76
2021/10/02 13:25:54;;;;;;;3.17;2.00;;;21.20;81.10;;;;;;4955632;28;20406;-76
2021/10/02 13:28:28;;;;;;;2.07;1.87;;;21.30;81.70;;;;;;4974891;28;20426;-76
2021/10/02 13:30:56;;;;;;;2.13;1.93;;;21.30;82.00;;;;;;4974907;28;20507;-76
2021/10/02 13:33:26;;;;;;;4.27;2.00;;;21.30;81.30;;;;;;4974788;28;20786;-76
2021/10/02 13:35:58;;;;;;;4.73;2.63;;;21.40;81.20;;;;;;4973399;28;20501;-76
2021/10/02 13:38:33;;;;;;;7.80;2.60;;;21.10;81.40;;;;;;4974713;28;20418;-76
2021/10/02 13:41:01;;;;;;;2.13;1.80;;;21.00;81.70;;;;;;4974087;28;20433;-74
2021/10/02 13:43:26;;;;;;;3.87;2.10;;;21.00;81.50;;;;;;4974576;28;20457;-76
2021/10/02 13:45:52;;;;;;;4.73;2.33;;;21.00;81.90;;;;;;4974755;28;20945;-77
2021/10/02 13:48:25;;;;;;;2.30;2.10;;;20.80;82.70;;;;;;4974532;28;20649;-76
2021/10/02 13:50:51;;;;;;;2.90;1.77;;;;;;;;;;4974595;28;20213;-76
2021/10/02 13:53:17;;;;;;;3.23;2.00;;;20.80;83.30;;;;;;4974086;28;20442;-76
2021/10/02 13:55:42;;;;;;;3.50;2.40;;;20.80;83.80;;;;;;4974556;28;20637;-76
2021/10/02 13:58:10;;;;;;;4.03;1.60;;;20.70;83.20;;;;;;4974585;28;20205;-76
2021/10/02 14:00:36;;;;;;;3.07;2.10;;;20.80;82.70;;;;;;4974217;28;20772;-75
2021/10/02 14:03:01;;;;;;;2.33;2.00;;;20.60;83.70;;;;;;4973864;28;20390;-76
2021/10/02 14:05:27;;;;;;;2.73;2.07;;;20.50;82.90;;;;;;4973143;28;20274;-76
2021/10/02 14:07:54;;;;;;;2.50;1.97;;;20.50;83.00;;;;;;4973835;28;20205;-76
2021/10/02 14:10:20;;;;;;;3.73;1.90;;;20.30;83.50;;;;;;4974026;28;20501;-76
2021/10/02 14:12:45;;;;;;;3.60;2.30;;;20.40;83.20;;;;;;4973690;28;20416;-76
2021/10/02 14:15:12;;;;;;;12.73;2.17;;;20.50;83.90;;;;;;4974099;28;20413;-76
2021/10/02 14:17:39;;;;;;;2.13;1.93;;;20.90;83.50;;;;;;4974012;28;20246;-76
2021/10/02 14:20:07;;;;;;;3.23;2.00;;;20.60;83.60;;;;;;4974000;28;20907;-76
2021/10/02 14:22:32;;;;;;;2.57;2.20;;;20.40;84.10;;;;;;4973303;28;20441;-75
2021/10/02 14:24:58;;;;;;;4.67;2.00;;;20.00;86.00;;;;;;4973895;28;20453;-76
2021/10/02 14:27:24;;;;;;;4.50;2.33;;;20.00;86.90;;;;;;4973735;28;20174;-76
2021/10/02 14:29:50;;;;;;;2.47;2.00;;;20.20;87.60;;;;;;4973809;28;20224;-76
2021/10/02 14:32:16;;;;;;;2.33;2.03;;;20.20;88.70;;;;;;4973065;28;20650;-76
2021/10/02 14:34:43;;;;;;;6.10;2.40;;;20.30;87.10;;;;;;4973782;28;20414;-77
2021/10/02 14:37:09;;;;;;;3.53;1.77;;;20.10;88.50;;;;;;4972347;28;20497;-76
2021/10/02 14:39:35;;;;;;;3.07;2.23;;;20.20;89.00;;;;;;4968070;28;20910;-76
2021/10/02 14:42:01;;;;;;;2.73;2.13;;;20.20;88.80;;;;;;4966815;28;20453;-77
2021/10/02 14:44:27;;;;;;;3.10;2.57;;;20.00;90.40;;;;;;4958186;28;20290;-76
2021/10/02 14:46:53;;;;;;;3.67;2.40;;;20.10;90.10;;;;;;4956288;28;20454;-76
2021/10/02 14:49:18;;;;;;;3.47;3.13;;;20.10;90.90;;;;;;4974979;28;20261;-76
2021/10/02 14:51:47;;;;;;;10.53;2.80;;;19.90;90.40;;;;;;4974901;28;20232;-76
2021/10/02 14:54:16;;;;;;;5.40;2.70;;;19.60;91.40;;;;;;4975570;28;20631;-76
2021/10/02 14:56:42;;;;;;;5.70;3.03;;;19.60;90.80;;;;;;4962242;28;20445;-76
2021/10/02 14:59:10;;;;;;;3.00;2.60;;;19.40;91.40;;;;;;4955165;28;20505;-75
2021/10/02 15:01:36;;;;;;;3.67;2.70;;;19.10;92.20;;;;;;4953430;29;20233;-76
2021/10/02 15:04:02;;;;;;;5.73;3.00;;;19.10;93.00;;;;;;4954472;28;20453;-75
2021/10/02 15:06:29;;;;;;;4.00;2.67;;;19.00;93.80;;;;;;4954592;28;20410;-76
2021/10/02 15:08:55;;;;;;;3.63;2.60;;;18.90;94.30;;;;;;4955507;28;20423;-76
2021/10/02 15:11:20;;;;;;;4.27;3.30;;;19.00;94.00;;;;;;4953199;28;20497;-76
2021/10/02 15:13:47;;;;;;;3.40;3.10;;;19.00;95.20;;;;;;4965699;28;20270;-76
2021/10/02 15:16:12;;;;;;;7.50;3.43;;;18.80;96.30;;;;;;4972926;28;20190;-76
2021/10/02 15:18:38;;;;;;;4.87;3.67;;;18.70;96.30;;;;;;4972992;28;20417;-75
2021/10/02 15:21:08;;;;;;;5.53;3.50;;;18.50;96.30;;;;;;4972287;28;20240;-75
2021/10/02 15:23:39;;;;;;;6.20;3.90;;;18.40;96.30;;;;;;4972951;28;20217;-76
2021/10/02 15:26:07;;;;;;;5.90;4.17;;;18.30;96.30;;;;;;4972800;28;20405;-76
2021/10/02 15:28:36;;;;;;;6.47;3.90;;;18.10;96.30;;;;;;4973038;28;20460;-76
2021/10/02 15:31:04;;;;;;;4.40;3.63;;;18.10;96.30;;;;;;4971134;28;20861;-76
2021/10/02 15:33:30;;;;;;;7.60;4.03;;;18.00;96.30;;;;;;4972918;28;20457;-76
2021/10/02 15:35:56;;;;;;;7.23;3.90;;;17.80;96.30;;;;;;4973109;28;20445;-76
2021/10/02 15:38:22;;;;;;;7.67;4.33;;;17.80;96.30;;;;;;4973029;28;20417;-76
2021/10/02 15:40:48;;;;;;;10.60;3.80;;;17.60;96.30;;;;;;4976389;28;20492;-76
2021/10/02 15:43:18;;;;;;;4.83;3.70;;;17.60;96.30;;;;;;4976241;28;20584;-78
2021/10/02 15:45:48;;;;;;;5.93;4.43;;;17.50;96.30;;;;;;4976805;28;20261;-76
2021/10/02 15:48:14;;;;;;;10.23;4.80;;;17.50;96.30;;;;;;4976469;28;20979;-75
2021/10/02 15:50:51;;;;;;;9.57;4.40;;;17.30;96.30;;;;;;4976616;28;20441;-75
2021/10/02 15:53:18;;;;;;;7.83;4.20;;;17.20;96.30;;;;;;4975938;28;20421;-75
2021/10/02 15:55:56;;;;;;;7.27;4.80;;;17.10;96.30;;;;;;4976466;28;20413;-75
2021/10/02 15:58:23;;;;;;;8.00;4.30;;;17.00;96.30;;;;;;4976303;28;20430;-75
2021/10/02 16:00:55;;;;;;;7.30;4.50;;;16.90;96.30;;;;;;4976268;28;20480;-75
2021/10/02 16:03:53;;;;;;;9.00;4.40;;;16.90;96.30;;;;;;4976115;28;20453;-75
2021/10/02 16:06:22;;;;;;;5.27;4.30;;;16.90;96.30;;;;;;4976306;28;20414;-75
2021/10/02 16:08:55;;;;;;;6.13;4.40;;;16.70;96.30;;;;;;4976261;28;21188;-75
2021/10/02 16:11:23;;;;;;;6.97;4.43;;;16.70;96.30;;;;;;4975881;28;20835;-76
2021/10/02 16:13:57;;;;;;;12.07;4.70;;;16.60;96.30;;;;;;4975371;28;20504;-75
2021/10/02 16:16:23;;;;;;;10.30;6.10;;;16.50;96.30;;;;;;4977513;28;20401;-75
2021/10/02 16:18:52;;;;;;;5.97;3.90;;;16.40;96.30;;;;;;4974889;28;20469;-76
2021/10/02 16:21:22;;;;;;;9.70;5.13;;;16.30;96.30;;;;;;4973806;28;20924;-76
2021/10/02 16:23:51;;;;;;;11.53;6.50;;;16.20;96.30;;;;;;4976125;28;20461;-76
2021/10/02 16:26:17;;;;;;;10.10;5.20;;;16.10;96.30;;;;;;4970997;28;20415;-76
2021/10/02 16:28:42;;;;;;;15.77;5.70;;;16.00;96.30;;;;;;4970895;28;20509;-77
2021/10/02 16:31:11;;;;;;;7.03;5.63;;;15.90;96.30;;;;;;4973980;28;20429;-76
2021/10/02 16:33:37;;;;;;;5.80;5.03;;;15.80;96.30;;;;;;4975035;28;20171;-76
2021/10/02 16:36:02;;;;;;;10.13;5.23;;;15.70;96.30;;;;;;4975308;28;20788;-76
2021/10/02 16:38:28;;;;;;;6.07;5.00;;;15.50;96.30;;;;;;4975385;28;20639;-76
2021/10/02 16:40:54;;;;;;;5.93;5.33;;;15.50;96.30;;;;;;4974807;28;20198;-78
2021/10/02 16:43:19;;;;;;;12.33;5.60;;;15.40;96.30;;;;;;4973442;28;20205;-78
2021/10/02 16:45:45;;;;;;;7.53;4.83;;;15.30;96.30;;;;;;4973278;28;20175;-78
2021/10/02 16:48:11;;;;;;;13.40;6.63;;;15.30;96.30;;;;;;4973401;28;20194;-77
2021/10/02 16:50:38;;;;;;;12.13;6.00;;;15.30;96.30;;;;;;4975138;28;20273;-77
2021/10/02 16:53:10;;;;;;;6.40;4.50;;;15.20;96.30;;;;;;4958526;28;20434;-78